AIQ658 VTBD-VVTS
Flight info
| Callsign | AIQ658 |
|---|---|
| Flight time | N/A |
| Altitude | 35000 |
| Route | GORSI3C GORSI N506 ELMOP R468 SAPEN/K0859F350 SAPEN5B |
| Aircraft | A320/M-SDE3FGHIRWY/LB1 |
Departure
| Time | N/A |
|---|---|
| Airport | Don Mueang International Airport (VTBD) |
Arrival
| Time | 2026-05-06 14:11 |
|---|---|
| Airport | Tan Son Nhat International Airport (VVTS) |
| Time | Latitude | Longitude | Altitude | Speed | Heading |
|---|---|---|---|---|---|
| 2026-05-06 13:41 | 11.39154 | 105.23561 | 34871 ft | 466 kts | 112° |
| 2026-05-06 13:42 | 11.36767 | 105.29682 | 34868 ft | 466 kts | 112° |
| 2026-05-06 13:42 | 11.34376 | 105.35815 | 34872 ft | 465 kts | 112° |
| 2026-05-06 13:43 | 11.31998 | 105.41908 | 34877 ft | 465 kts | 112° |
| 2026-05-06 13:43 | 11.29595 | 105.48034 | 34876 ft | 464 kts | 112° |
| 2026-05-06 13:44 | 11.27203 | 105.54149 | 34874 ft | 464 kts | 112° |
| 2026-05-06 13:44 | 11.24831 | 105.60217 | 34873 ft | 464 kts | 112° |
| 2026-05-06 13:45 | 11.22440 | 105.66328 | 34870 ft | 463 kts | 112° |
| 2026-05-06 13:45 | 11.18863 | 105.75445 | 34877 ft | 462 kts | 112° |
| 2026-05-06 13:46 | 11.16485 | 105.81518 | 34781 ft | 459 kts | 112° |
| 2026-05-06 13:46 | 11.15307 | 105.84523 | 34555 ft | 457 kts | 112° |
| 2026-05-06 13:46 | 11.14117 | 105.87549 | 33767 ft | 463 kts | 112° |
| 2026-05-06 13:47 | 11.12909 | 105.90614 | 32671 ft | 465 kts | 112° |
| 2026-05-06 13:47 | 11.11722 | 105.93626 | 32346 ft | 447 kts | 112° |
| 2026-05-06 13:47 | 11.10605 | 105.96468 | 31973 ft | 428 kts | 112° |
| 2026-05-06 13:47 | 11.09513 | 105.99246 | 31318 ft | 417 kts | 112° |
| 2026-05-06 13:48 | 11.08445 | 106.01962 | 30597 ft | 409 kts | 112° |
| 2026-05-06 13:48 | 11.07395 | 106.04625 | 29863 ft | 402 kts | 112° |
| 2026-05-06 13:48 | 11.06364 | 106.07242 | 28990 ft | 396 kts | 112° |
| 2026-05-06 13:48 | 11.05345 | 106.09834 | 28121 ft | 391 kts | 112° |
| 2026-05-06 13:49 | 11.04340 | 106.12394 | 27266 ft | 386 kts | 112° |
| 2026-05-06 13:49 | 11.03340 | 106.14914 | 26463 ft | 382 kts | 114° |
| 2026-05-06 13:49 | 11.02132 | 106.17257 | 25689 ft | 377 kts | 122° |
| 2026-05-06 13:49 | 11.00594 | 106.19408 | 24920 ft | 373 kts | 130° |
| 2026-05-06 13:50 | 10.98795 | 106.21288 | 24150 ft | 370 kts | 138° |
| 2026-05-06 13:50 | 10.96884 | 106.23034 | 23375 ft | 368 kts | 138° |
| 2026-05-06 13:50 | 10.94984 | 106.24773 | 22532 ft | 364 kts | 137° |
| 2026-05-06 13:50 | 10.93132 | 106.26470 | 21753 ft | 360 kts | 137° |
| 2026-05-06 13:51 | 10.91284 | 106.28163 | 21044 ft | 355 kts | 137° |
| 2026-05-06 13:51 | 10.89459 | 106.29836 | 20324 ft | 351 kts | 137° |
| 2026-05-06 13:51 | 10.87648 | 106.31498 | 19613 ft | 347 kts | 137° |
| 2026-05-06 13:51 | 10.85855 | 106.33142 | 18942 ft | 343 kts | 137° |
| 2026-05-06 13:52 | 10.84089 | 106.34757 | 18342 ft | 338 kts | 137° |
| 2026-05-06 13:52 | 10.82377 | 106.36323 | 17838 ft | 329 kts | 137° |
| 2026-05-06 13:52 | 10.80692 | 106.37868 | 17386 ft | 325 kts | 137° |
| 2026-05-06 13:52 | 10.79002 | 106.39419 | 16943 ft | 326 kts | 137° |
| 2026-05-06 13:53 | 10.77310 | 106.40972 | 16491 ft | 327 kts | 137° |
| 2026-05-06 13:53 | 10.75635 | 106.42510 | 16044 ft | 329 kts | 137° |
| 2026-05-06 13:53 | 10.73942 | 106.44064 | 15715 ft | 326 kts | 137° |
| 2026-05-06 13:53 | 10.72240 | 106.45622 | 15314 ft | 326 kts | 137° |
| 2026-05-06 13:54 | 10.70565 | 106.47153 | 15015 ft | 323 kts | 137° |
| 2026-05-06 13:54 | 10.68897 | 106.48680 | 14675 ft | 322 kts | 137° |
| 2026-05-06 13:54 | 10.67236 | 106.50200 | 14342 ft | 319 kts | 136° |
| 2026-05-06 13:54 | 10.65600 | 106.51700 | 13775 ft | 315 kts | 136° |
| 2026-05-06 13:55 | 10.63976 | 106.53186 | 13210 ft | 310 kts | 136° |
| 2026-05-06 13:55 | 10.62393 | 106.54632 | 12948 ft | 308 kts | 136° |
| 2026-05-06 13:55 | 10.60799 | 106.56086 | 12693 ft | 308 kts | 136° |
| 2026-05-06 13:55 | 10.59237 | 106.57569 | 12432 ft | 305 kts | 131° |
| 2026-05-06 13:56 | 10.57978 | 106.59292 | 12170 ft | 302 kts | 118° |
| 2026-05-06 13:56 | 10.57103 | 106.61219 | 11930 ft | 299 kts | 110° |
| 2026-05-06 13:56 | 10.56330 | 106.63182 | 11678 ft | 298 kts | 111° |
| 2026-05-06 13:56 | 10.55553 | 106.65139 | 11427 ft | 297 kts | 111° |
| 2026-05-06 13:57 | 10.54788 | 106.67060 | 11183 ft | 296 kts | 111° |
| 2026-05-06 13:57 | 10.54015 | 106.69000 | 10938 ft | 295 kts | 111° |
| 2026-05-06 13:57 | 10.53243 | 106.70937 | 10450 ft | 300 kts | 110° |
| 2026-05-06 13:57 | 10.52467 | 106.72888 | 10013 ft | 294 kts | 110° |
| 2026-05-06 13:58 | 10.51702 | 106.74807 | 9380 ft | 290 kts | 110° |
| 2026-05-06 13:58 | 10.50945 | 106.76700 | 8717 ft | 287 kts | 110° |
| 2026-05-06 13:58 | 10.50210 | 106.78546 | 8063 ft | 284 kts | 110° |
| 2026-05-06 13:58 | 10.49465 | 106.80416 | 7473 ft | 278 kts | 110° |
| 2026-05-06 13:59 | 10.48770 | 106.82153 | 7240 ft | 261 kts | 110° |
| 2026-05-06 13:59 | 10.48191 | 106.83846 | 7015 ft | 248 kts | 100° |
| 2026-05-06 13:59 | 10.48041 | 106.85586 | 7018 ft | 246 kts | 86° |
| 2026-05-06 13:59 | 10.48323 | 106.87304 | 7016 ft | 247 kts | 75° |
| 2026-05-06 14:00 | 10.48747 | 106.88980 | 7018 ft | 249 kts | 75° |
| 2026-05-06 14:00 | 10.49387 | 106.90617 | 7020 ft | 250 kts | 62° |
| 2026-05-06 14:00 | 10.50206 | 106.92176 | 7021 ft | 250 kts | 62° |
| 2026-05-06 14:00 | 10.51017 | 106.93729 | 6783 ft | 248 kts | 63° |
| 2026-05-06 14:01 | 10.51873 | 106.95242 | 6432 ft | 247 kts | 52° |
| 2026-05-06 14:01 | 10.53090 | 106.96474 | 6070 ft | 246 kts | 44° |
| 2026-05-06 14:01 | 10.54350 | 106.97651 | 5698 ft | 245 kts | 44° |
| 2026-05-06 14:01 | 10.55751 | 106.98615 | 5346 ft | 246 kts | 23° |
| 2026-05-06 14:02 | 10.57417 | 106.98882 | 4999 ft | 250 kts | 357° |
| 2026-05-06 14:02 | 10.59071 | 106.98336 | 4645 ft | 253 kts | 333° |
| 2026-05-06 14:02 | 10.60594 | 106.97437 | 4467 ft | 254 kts | 332° |
| 2026-05-06 14:02 | 10.62129 | 106.96530 | 4344 ft | 255 kts | 332° |
| 2026-05-06 14:03 | 10.63663 | 106.95627 | 4223 ft | 255 kts | 332° |
| 2026-05-06 14:03 | 10.65202 | 106.94722 | 4102 ft | 255 kts | 333° |
| 2026-05-06 14:03 | 10.66728 | 106.93825 | 3980 ft | 252 kts | 333° |
| 2026-05-06 14:03 | 10.68239 | 106.92937 | 3861 ft | 254 kts | 333° |
| 2026-05-06 14:04 | 10.69769 | 106.92035 | 3736 ft | 254 kts | 332° |
| 2026-05-06 14:04 | 10.71303 | 106.91133 | 3625 ft | 255 kts | 333° |
| 2026-05-06 14:04 | 10.72838 | 106.90232 | 3492 ft | 254 kts | 333° |
| 2026-05-06 14:04 | 10.74351 | 106.89343 | 3376 ft | 246 kts | 333° |
| 2026-05-06 14:05 | 10.75823 | 106.88478 | 3260 ft | 244 kts | 333° |
| 2026-05-06 14:05 | 10.77267 | 106.87627 | 3141 ft | 240 kts | 333° |
| 2026-05-06 14:05 | 10.78683 | 106.86792 | 3029 ft | 230 kts | 333° |
| 2026-05-06 14:05 | 10.80048 | 106.85989 | 2912 ft | 225 kts | 333° |
| 2026-05-06 14:06 | 10.81400 | 106.85195 | 2790 ft | 223 kts | 333° |
| 2026-05-06 14:06 | 10.82741 | 106.84408 | 2673 ft | 222 kts | 333° |
| 2026-05-06 14:06 | 10.84079 | 106.83624 | 2584 ft | 221 kts | 333° |
| 2026-05-06 14:06 | 10.85378 | 106.82824 | 2520 ft | 217 kts | 323° |
| 2026-05-06 14:07 | 10.86389 | 106.81731 | 2532 ft | 209 kts | 303° |
| 2026-05-06 14:07 | 10.86972 | 106.80387 | 2547 ft | 208 kts | 284° |
| 2026-05-06 14:07 | 10.87086 | 106.78929 | 2463 ft | 207 kts | 263° |
| 2026-05-06 14:07 | 10.86722 | 106.77542 | 2255 ft | 198 kts | 247° |
| 2026-05-06 14:08 | 10.86242 | 106.76273 | 2020 ft | 186 kts | 246° |
| 2026-05-06 14:08 | 10.85938 | 106.75469 | 1881 ft | 182 kts | 246° |
| 2026-05-06 14:08 | 10.85502 | 106.74313 | 1670 ft | 169 kts | 246° |
| 2026-05-06 14:08 | 10.85090 | 106.73219 | 1434 ft | 162 kts | 246° |
| 2026-05-06 14:09 | 10.84825 | 106.72518 | 1309 ft | 159 kts | 246° |
| 2026-05-06 14:09 | 10.84168 | 106.70780 | 971 ft | 158 kts | 248° |
| 2026-05-06 14:09 | 10.83780 | 106.69750 | 780 ft | 154 kts | 247° |
| 2026-05-06 14:09 | 10.83394 | 106.68728 | 583 ft | 154 kts | 248° |
| 2026-05-06 14:10 | 10.83021 | 106.67713 | 379 ft | 153 kts | 247° |
| 2026-05-06 14:10 | 10.82635 | 106.66703 | 150 ft | 153 kts | 248° |
| 2026-05-06 14:10 | 10.82258 | 106.65727 | 39 ft | 136 kts | 249° |
| 2026-05-06 14:10 | 10.81994 | 106.65016 | 38 ft | 82 kts | 249° |
| 2026-05-06 14:11 | 10.81889 | 106.64735 | 40 ft | 30 kts | 249° |
| 2026-05-06 14:11 | 10.81814 | 106.64541 | 40 ft | 27 kts | 248° |
| 2026-05-06 14:11 | 10.81752 | 106.64430 | 42 ft | 28 kts | 231° |
| 2026-05-06 14:11 | 10.81661 | 106.64340 | 39 ft | 11 kts | 218° |
| 2026-05-06 14:12 | 10.81575 | 106.64285 | 39 ft | 10 kts | 200° |
| 2026-05-06 14:12 | 10.81502 | 106.64303 | 38 ft | 12 kts | 159° |
| 2026-05-06 14:12 | 10.81429 | 106.64337 | 37 ft | 11 kts | 155° |
| 2026-05-06 14:12 | 10.81383 | 106.64357 | 37 ft | 11 kts | 160° |
| 2026-05-06 14:13 | 10.81315 | 106.64377 | 37 ft | 10 kts | 162° |
| 2026-05-06 14:13 | 10.81257 | 106.64404 | 36 ft | 8 kts | 141° |
| 2026-05-06 14:13 | 10.81234 | 106.64446 | 37 ft | 6 kts | 103° |
| 2026-05-06 14:13 | 10.81224 | 106.64490 | 38 ft | 4 kts | 99° |
| 2026-05-06 14:14 | 10.81221 | 106.64506 | 38 ft | 3 kts | 98° |
| 2026-05-06 14:14 | 10.81218 | 106.64532 | 38 ft | 6 kts | 98° |
| 2026-05-06 14:14 | 10.81208 | 106.64594 | 38 ft | 10 kts | 97° |
| 2026-05-06 14:14 | 10.81214 | 106.64662 | 39 ft | 10 kts | 70° |
| 2026-05-06 14:15 | 10.81240 | 106.64724 | 39 ft | 10 kts | 66° |
| 2026-05-06 14:15 | 10.81264 | 106.64789 | 38 ft | 10 kts | 69° |
| 2026-05-06 14:15 | 10.81290 | 106.64857 | 39 ft | 11 kts | 71° |
| 2026-05-06 14:15 | 10.81323 | 106.64951 | 39 ft | 18 kts | 70° |
| 2026-05-06 14:16 | 10.81375 | 106.65086 | 38 ft | 22 kts | 70° |
| 2026-05-06 14:16 | 10.81430 | 106.65230 | 40 ft | 18 kts | 69° |
| 2026-05-06 14:16 | 10.81478 | 106.65358 | 40 ft | 21 kts | 69° |
| 2026-05-06 14:16 | 10.81533 | 106.65502 | 37 ft | 23 kts | 69° |
| 2026-05-06 14:17 | 10.81590 | 106.65659 | 38 ft | 25 kts | 68° |
| 2026-05-06 14:17 | 10.81634 | 106.65770 | 40 ft | 17 kts | 69° |
| 2026-05-06 14:17 | 10.81677 | 106.65887 | 41 ft | 16 kts | 69° |
| 2026-05-06 14:17 | 10.81722 | 106.66003 | 41 ft | 19 kts | 68° |
| 2026-05-06 14:18 | 10.81767 | 106.66121 | 41 ft | 11 kts | 70° |
| 2026-05-06 14:18 | 10.81795 | 106.66202 | 42 ft | 13 kts | 70° |
| 2026-05-06 14:18 | 10.81805 | 106.66281 | 42 ft | 10 kts | 136° |
| 2026-05-06 14:18 | 10.81751 | 106.66299 | 41 ft | 7 kts | 154° |
| 2026-05-06 14:19 | 10.81726 | 106.66309 | 41 ft | 0 kts | 162° |
| 2026-05-06 14:19 | 10.81724 | 106.66310 | 41 ft | 0 kts | 162° |